Time;durP1;ratioP1;P1;durP2;ratioP2;P2;SDS_P1;SDS_P2;PMS_P1;PMS_P2;Temp;Humidity;BMP_temperature;BMP_pressure;BME280_temperature;BME280_humidity;BME280_pressure;Samples;Min_cycle;Max_cycle;Signal;HPM_P1;HPM_P2
2021/07/27 00:01:25;;;;;;;14.82;10.82;;;15.20;99.90;;;;;;6105388;23;20057;-91
2021/07/27 00:04:13;;;;;;;17.90;10.30;;;15.20;99.90;;;;;;6085914;23;20174;-89
2021/07/27 00:07:00;;;;;;;23.60;11.30;;;15.20;99.90;;;;;;6098554;23;20030;-92
2021/07/27 00:09:47;;;;;;;21.67;11.48;;;15.10;99.90;;;;;;6098641;23;20037;-90
2021/07/27 00:12:35;;;;;;;19.13;10.82;;;15.10;99.90;;;;;;6078325;23;20022;-90
2021/07/27 00:15:28;;;;;;;16.98;11.20;;;15.10;99.90;;;;;;6107481;23;20085;-90
2021/07/27 00:18:33;;;;;;;18.55;11.18;;;15.10;99.90;;;;;;6094291;23;20064;-91
2021/07/27 00:21:22;;;;;;;19.25;11.02;;;15.10;99.90;;;;;;6128478;23;20077;-90
2021/07/27 00:24:10;;;;;;;20.95;11.23;;;15.10;99.90;;;;;;6107439;23;20050;-92
2021/07/27 00:27:00;;;;;;;20.95;11.77;;;15.00;99.90;;;;;;6128853;23;20097;-93
2021/07/27 00:29:48;;;;;;;23.27;11.90;;;15.00;99.90;;;;;;6129264;23;20029;-92
2021/07/27 00:32:36;;;;;;;23.52;11.75;;;15.00;99.90;;;;;;6125907;23;20544;-92
2021/07/27 00:35:28;;;;;;;17.02;12.20;;;15.00;99.90;;;;;;6127984;23;20438;-92
2021/07/27 00:38:22;;;;;;;20.02;12.02;;;15.00;99.90;;;;;;6126664;23;20040;-92
2021/07/27 00:41:15;;;;;;;20.20;12.18;;;15.00;99.90;;;;;;6128507;23;20037;-91
2021/07/27 00:44:05;;;;;;;;;;;15.00;99.90;;;;;;6088157;23;20041;-90
2021/07/27 00:46:53;;;;;;;15.80;10.95;;;15.00;99.90;;;;;;6130437;23;19928;-91
2021/07/27 00:49:44;;;;;;;19.63;12.52;;;14.90;99.90;;;;;;6134488;23;20101;-92
2021/07/27 00:52:35;;;;;;;17.90;12.50;;;14.90;99.90;;;;;;6141430;23;20136;-92
2021/07/27 00:55:49;;;;;;;;;;;;;;;;;;;;;
2021/07/27 01:08:45;;;;;;;21.27;12.38;;;14.60;99.90;;;;;;6178818;23;20052;-91
2021/07/27 01:11:59;;;;;;;21.20;12.48;;;14.60;99.90;;;;;;6167224;23;20064;-91
2021/07/27 01:15:08;;;;;;;25.15;12.77;;;14.60;99.90;;;;;;6184838;23;20147;-89
2021/07/27 01:18:03;;;;;;;21.95;13.20;;;14.60;99.90;;;;;;6185216;23;20436;-91
2021/07/27 01:47:47;;;;;;;29.23;15.50;;;14.30;99.90;;;;;;6019388;23;20054;-90
2021/07/27 01:51:31;;;;;;;;;;;;;;;;;;;;;
2021/07/27 01:58:07;;;;;;;25.38;15.88;;;14.40;99.90;;;;;;5806930;24;20018;-91
2021/07/27 02:01:25;;;;;;;;;;;;;;;;;;;;;
2021/07/27 02:04:26;;;;;;;32.50;14.60;;;14.40;99.90;;;;;;5843053;24;20046;-91
2021/07/27 02:08:41;;;;;;;;;;;;;;;;;;;;;
2021/07/27 02:12:11;;;;;;;23.80;14.15;;;14.40;99.90;;;;;;5844613;24;20299;-90
2021/07/27 02:15:44;;;;;;;28.13;15.55;;;14.40;99.90;;;;;;6000484;23;20300;-91
2021/07/27 02:19:33;;;;;;;;;;;;;;;;;;;;;
2021/07/27 02:22:59;;;;;;;27.23;14.88;;;14.40;99.90;;;;;;5981911;24;20020;-90
2021/07/27 02:27:05;;;;;;;26.50;13.73;;;14.30;99.90;;;;;;6003940;23;20028;-92
2021/07/27 02:30:29;;;;;;;;;;;;;;;;;;;;;
2021/07/27 02:33:29;;;;;;;29.52;14.43;;;14.40;99.90;;;;;;5952569;24;20032;-89
2021/07/27 02:36:49;;;;;;;26.08;13.98;;;14.40;99.90;;;;;;5954853;24;20028;-91
2021/07/27 02:40:18;;;;;;;23.23;14.27;;;14.40;99.90;;;;;;5953264;24;20080;-91
2021/07/27 02:43:14;;;;;;;19.98;12.35;;;14.50;99.90;;;;;;5938785;24;20493;-91
2021/07/27 02:46:05;;;;;;;22.35;12.00;;;14.50;99.90;;;;;;5954483;24;20333;-93
2021/07/27 02:49:12;;;;;;;;;;;;;;;;;;;;;
2021/07/27 02:52:18;;;;;;;21.65;12.13;;;14.50;99.90;;;;;;5951765;24;20124;-89
2021/07/27 03:00:04;;;;;;;;;;;;;;;;;;;;;
2021/07/27 03:04:15;;;;;;;;;;;;;;;;;;;;;
2021/07/27 03:30:59;;;;;;;26.17;13.00;;;14.30;99.90;;;;;;6177566;22;1345511;-92
2021/07/27 03:34:09;;;;;;;18.27;12.17;;;14.30;99.90;;;;;;6133378;23;20108;-91
2021/07/27 04:24:07;;;;;;;28.15;16.60;;;13.80;99.90;;;;;;6133900;23;20024;-86
2021/07/27 04:35:24;;;;;;;26.08;16.65;;;13.90;99.90;;;;;;6214006;23;20107;-87
2021/07/27 04:39:06;;;;;;;25.95;17.48;;;13.90;99.90;;;;;;6191976;23;20028;-87
2021/07/27 04:41:53;;;;;;;24.80;16.65;;;13.90;99.90;;;;;;6216752;23;20024;-87
2021/07/27 04:44:40;;;;;;;27.27;16.33;;;13.90;99.90;;;;;;6213387;23;20028;-88
2021/07/27 04:47:30;;;;;;;22.67;16.15;;;14.00;99.90;;;;;;6212709;23;20428;-88
2021/07/27 04:50:17;;;;;;;22.33;15.80;;;14.10;99.90;;;;;;6214170;23;20036;-88
2021/07/27 04:53:10;;;;;;;22.30;15.13;;;14.20;99.90;;;;;;6213475;23;20056;-88
2021/07/27 04:59:32;;;;;;;28.73;13.90;;;14.30;99.90;;;;;;6190342;23;20507;-86
2021/07/27 05:02:22;;;;;;;21.63;14.23;;;14.30;99.90;;;;;;6214941;23;20039;-89
2021/07/27 05:05:10;;;;;;;23.95;14.63;;;14.40;99.90;;;;;;6215218;23;20082;-90
2021/07/27 05:07:58;;;;;;;22.35;14.25;;;14.40;99.90;;;;;;6213704;23;20415;-88
2021/07/27 05:10:46;;;;;;;22.95;13.68;;;14.40;99.90;;;;;;6214002;23;20052;-89
2021/07/27 05:13:35;;;;;;;21.30;12.75;;;14.50;99.90;;;;;;6212130;23;20107;-90
2021/07/27 05:16:23;;;;;;;28.88;13.55;;;14.60;99.90;;;;;;6215124;23;20024;-91
2021/07/27 05:19:10;;;;;;;27.27;12.77;;;14.70;99.90;;;;;;6214814;23;20096;-91
2021/07/27 05:21:58;;;;;;;17.20;11.95;;;14.70;99.90;;;;;;6213596;23;20040;-88
2021/07/27 05:24:47;;;;;;;23.73;11.85;;;14.80;99.90;;;;;;6215103;23;20040;-88
2021/07/27 05:27:38;;;;;;;22.20;12.05;;;14.90;99.90;;;;;;6217421;23;20021;-89
2021/07/27 05:30:25;;;;;;;23.98;11.20;;;15.00;99.90;;;;;;6220166;23;20036;-87
2021/07/27 05:33:14;;;;;;;22.65;10.55;;;15.00;99.90;;;;;;6220743;23;20456;-89
2021/07/27 05:36:01;;;;;;;19.40;11.18;;;15.10;99.90;;;;;;6215049;23;20696;-88
2021/07/27 05:38:51;;;;;;;24.35;11.05;;;15.20;99.90;;;;;;6210556;23;20029;-86
2021/07/27 05:41:38;;;;;;;15.20;10.65;;;15.20;99.90;;;;;;6214832;23;20371;-91
2021/07/27 05:44:26;;;;;;;16.27;10.13;;;15.30;99.90;;;;;;6213583;23;20024;-86
2021/07/27 05:47:13;;;;;;;14.85;10.40;;;15.40;99.90;;;;;;6213781;23;20024;-86
2021/07/27 09:55:13;;;;;;;4.82;3.38;;;29.70;58.00;;;;;;6215862;23;20338;-92
2021/07/27 09:58:01;;;;;;;4.00;3.20;;;30.10;58.90;;;;;;6192423;23;20031;-90
2021/07/27 10:01:08;;;;;;;4.25;3.30;;;30.10;56.10;;;;;;6194158;23;20701;-91
2021/07/27 10:04:00;;;;;;;4.35;3.28;;;30.40;55.00;;;;;;6194724;23;20048;-88
2021/07/27 10:06:48;;;;;;;4.85;3.75;;;30.10;56.90;;;;;;6214414;23;20054;-89
2021/07/27 10:09:36;;;;;;;4.85;4.07;;;29.50;57.00;;;;;;6192740;23;20082;-91
2021/07/27 10:12:35;;;;;;;4.75;3.60;;;28.70;59.90;;;;;;6215026;23;20402;-89
2021/07/27 10:15:24;;;;;;;5.00;3.50;;;29.20;59.00;;;;;;6216845;23;20070;-91
2021/07/27 10:18:13;;;;;;;4.93;3.53;;;29.70;56.70;;;;;;6193710;23;20094;-91
2021/07/27 10:21:28;;;;;;;5.22;3.67;;;29.90;55.40;;;;;;6213663;23;20095;-92
2021/07/27 10:24:41;;;;;;;6.35;3.60;;;30.10;55.50;;;;;;6192311;23;20381;-92
2021/07/27 10:27:29;;;;;;;4.15;3.72;;;29.50;55.50;;;;;;6215429;23;20044;-90
2021/07/27 10:30:31;;;;;;;3.85;3.22;;;29.10;56.50;;;;;;6194103;23;20029;-88
2021/07/27 10:33:27;;;;;;;5.33;3.63;;;29.10;53.50;;;;;;6213451;23;20725;-91
2021/07/27 10:36:31;;;;;;;4.57;3.38;;;29.90;54.20;;;;;;6216272;23;20347;-90
2021/07/27 10:39:20;;;;;;;4.10;3.70;;;29.10;54.00;;;;;;6194046;23;20021;-90
2021/07/27 10:42:17;;;;;;;4.75;3.35;;;28.00;57.40;;;;;;6175676;23;20027;-90
2021/07/27 10:45:16;;;;;;;4.25;3.72;;;28.00;56.00;;;;;;6192972;23;20375;-89
2021/07/27 10:48:08;;;;;;;5.43;3.70;;;28.80;57.00;;;;;;6216028;23;20096;-90
2021/07/27 10:50:57;;;;;;;4.97;3.20;;;29.80;54.00;;;;;;6152003;23;20107;-90
2021/07/27 10:53:51;;;;;;;4.90;3.78;;;30.60;54.10;;;;;;6213059;23;20028;-91
2021/07/27 10:56:38;;;;;;;3.88;3.47;;;31.40;52.40;;;;;;6189715;23;20028;-91
2021/07/27 10:59:36;;;;;;;4.78;3.78;;;31.40;52.40;;;;;;6213544;23;20032;-90
2021/07/27 11:02:24;;;;;;;3.60;3.13;;;31.50;49.60;;;;;;6212796;23;20024;-88
2021/07/27 11:05:22;;;;;;;5.78;3.28;;;31.40;50.40;;;;;;6193508;23;20035;-90
2021/07/27 11:08:25;;;;;;;4.88;3.03;;;31.90;53.50;;;;;;6212449;23;20055;-89
2021/07/27 11:11:15;;;;;;;4.53;3.15;;;32.10;48.00;;;;;;6213486;23;20439;-89
2021/07/27 11:14:05;;;;;;;4.10;2.80;;;32.20;46.50;;;;;;6198016;23;20024;-89
2021/07/27 11:17:02;;;;;;;4.63;2.42;;;31.40;46.60;;;;;;6206647;23;20031;-89
2021/07/27 11:19:52;;;;;;;4.80;3.42;;;31.20;47.40;;;;;;6203232;23;20366;-89
2021/07/27 11:23:09;;;;;;;3.20;2.83;;;31.20;52.00;;;;;;6194632;23;20024;-90
2021/07/27 11:25:57;;;;;;;3.00;2.78;;;32.30;49.20;;;;;;6227910;23;20127;-89
2021/07/27 11:28:45;;;;;;;3.75;2.53;;;33.20;44.40;;;;;;6211649;23;20038;-90
2021/07/27 11:31:46;;;;;;;4.63;2.63;;;33.30;49.10;;;;;;6222829;23;20024;-87
2021/07/27 11:34:36;;;;;;;4.53;3.33;;;31.70;45.60;;;;;;6192121;23;20031;-86
2021/07/27 11:37:26;;;;;;;3.92;3.08;;;30.30;48.40;;;;;;6216842;23;20052;-89
2021/07/27 11:40:23;;;;;;;6.00;3.08;;;29.70;47.80;;;;;;6193771;23;20024;-91
2021/07/27 11:43:31;;;;;;;3.78;3.25;;;29.30;50.00;;;;;;6195563;23;20024;-90
2021/07/27 11:46:21;;;;;;;3.40;2.85;;;28.50;53.60;;;;;;6192637;23;20043;-88
2021/07/27 11:49:08;;;;;;;3.85;3.35;;;28.40;54.30;;;;;;6194046;23;20636;-90
2021/07/27 11:52:03;;;;;;;4.45;3.15;;;28.00;53.50;;;;;;6194452;23;20020;-88
2021/07/27 11:55:03;;;;;;;4.38;3.45;;;27.30;55.80;;;;;;6193427;23;20025;-90
2021/07/27 11:57:50;;;;;;;3.63;3.28;;;26.80;56.00;;;;;;6193815;23;20336;-90
2021/07/27 12:00:38;;;;;;;3.75;3.38;;;26.40;57.20;;;;;;6216243;23;20032;-91
2021/07/27 12:03:25;;;;;;;4.57;3.08;;;26.40;57.90;;;;;;6216572;23;20047;-90
2021/07/27 12:06:14;;;;;;;4.97;3.47;;;26.10;58.60;;;;;;6219167;23;20052;-91
2021/07/27 12:16:48;;;;;;;5.10;3.58;;;26.50;58.00;;;;;;6229590;22;20432;-87
2021/07/27 12:19:39;;;;;;;5.82;2.90;;;26.60;58.70;;;;;;6222242;23;20036;-87
2021/07/27 12:22:26;;;;;;;4.82;3.38;;;26.80;58.60;;;;;;6243536;23;20082;-87
2021/07/27 12:25:14;;;;;;;4.75;3.55;;;26.90;58.60;;;;;;6241852;23;20024;-86
2021/07/27 12:28:02;;;;;;;5.82;3.53;;;27.40;57.50;;;;;;6244681;23;20031;-86
2021/07/27 12:30:49;;;;;;;4.03;3.03;;;27.70;60.90;;;;;;6243427;23;20024;-86
2021/07/27 12:33:38;;;;;;;4.40;3.00;;;28.30;55.80;;;;;;6242153;23;20051;-88
2021/07/27 12:36:26;;;;;;;5.07;3.10;;;28.60;54.30;;;;;;6222660;23;20554;-88
2021/07/27 12:39:13;;;;;;;4.60;3.70;;;29.20;52.60;;;;;;6243048;23;20329;-87
2021/07/27 12:42:01;;;;;;;4.82;3.63;;;29.40;53.50;;;;;;6246186;23;20024;-85
2021/07/27 12:44:48;;;;;;;3.80;3.05;;;30.00;53.10;;;;;;6222875;23;20032;-85
2021/07/27 12:47:38;;;;;;;5.13;3.10;;;30.30;51.80;;;;;;6243647;23;20074;-84
2021/07/27 12:50:25;;;;;;;3.40;2.80;;;31.20;49.80;;;;;;6222345;23;20035;-84
2021/07/27 12:53:12;;;;;;;4.93;3.13;;;31.90;48.50;;;;;;6243018;23;20024;-84
2021/07/27 12:56:01;;;;;;;3.92;3.25;;;32.10;47.30;;;;;;6243145;23;20449;-84
2021/07/27 12:58:48;;;;;;;4.40;3.30;;;32.30;47.90;;;;;;6242778;23;20056;-85
2021/07/27 13:01:35;;;;;;;4.45;3.40;;;30.60;50.50;;;;;;6221352;23;20028;-82
2021/07/27 13:04:23;;;;;;;7.22;3.50;;;30.10;49.90;;;;;;6244797;23;20020;-84
2021/07/27 13:07:12;;;;;;;5.38;3.20;;;30.00;50.80;;;;;;6243962;23;20031;-90
2021/07/27 13:10:00;;;;;;;3.70;3.13;;;29.90;53.00;;;;;;6221420;23;20028;-84
2021/07/27 13:12:47;;;;;;;7.22;3.42;;;30.50;51.50;;;;;;6222198;23;20023;-87
2021/07/27 13:15:40;;;;;;;5.80;3.70;;;30.70;51.70;;;;;;6241132;23;20070;-88
2021/07/27 13:18:28;;;;;;;4.55;3.65;;;29.50;53.50;;;;;;6244247;23;20032;-84
2021/07/27 13:21:16;;;;;;;5.10;3.58;;;28.70;55.40;;;;;;6243906;23;20419;-85
2021/07/27 13:24:05;;;;;;;5.25;3.80;;;27.80;56.20;;;;;;6221752;23;20099;-84
2021/07/27 13:26:53;;;;;;;6.28;3.60;;;27.20;58.50;;;;;;6245333;23;20082;-83
2021/07/27 13:29:40;;;;;;;4.10;3.58;;;27.10;59.60;;;;;;6244703;23;20020;-86
2021/07/27 13:32:28;;;;;;;8.20;3.58;;;27.40;59.10;;;;;;6249741;23;20107;-87
2021/07/27 13:35:16;;;;;;;4.07;3.47;;;27.50;61.10;;;;;;6248771;23;20028;-84
2021/07/27 13:38:04;;;;;;;4.95;3.20;;;27.90;57.90;;;;;;6248170;23;20597;-85
2021/07/27 13:40:53;;;;;;;6.78;4.22;;;28.20;57.80;;;;;;6244182;23;20091;-85
2021/07/27 13:43:41;;;;;;;4.78;3.60;;;28.30;57.20;;;;;;6220421;23;20035;-87
2021/07/27 13:46:30;;;;;;;5.07;3.90;;;28.50;58.10;;;;;;6220122;23;20024;-86
2021/07/27 13:49:18;;;;;;;5.00;3.85;;;28.70;58.70;;;;;;6242244;23;20032;-86
2021/07/27 13:52:10;;;;;;;4.85;3.80;;;28.70;57.20;;;;;;6244603;23;20424;-84
2021/07/27 13:54:57;;;;;;;8.13;4.10;;;28.30;57.20;;;;;;6221065;23;20039;-85
2021/07/27 13:57:44;;;;;;;7.22;4.18;;;28.20;56.90;;;;;;6242319;23;20028;-85
2021/07/27 14:00:31;;;;;;;4.30;3.90;;;28.30;58.50;;;;;;6242166;23;20028;-85
2021/07/27 14:03:18;;;;;;;4.65;3.60;;;28.50;56.30;;;;;;6242440;23;20040;-85
2021/07/27 14:06:06;;;;;;;4.97;4.05;;;28.90;58.00;;;;;;6242226;23;20099;-84
2021/07/27 14:08:55;;;;;;;4.32;3.92;;;28.30;56.90;;;;;;6243138;23;20081;-85
2021/07/27 14:11:45;;;;;;;6.85;4.20;;;28.00;58.80;;;;;;6223796;23;20034;-86
2021/07/27 14:14:33;;;;;;;6.72;4.30;;;28.30;57.60;;;;;;6230130;23;20749;-86
2021/07/27 14:17:21;;;;;;;5.18;4.25;;;28.30;57.70;;;;;;6229766;23;20051;-86
2021/07/27 14:20:09;;;;;;;5.63;3.92;;;28.80;57.00;;;;;;6226754;23;20331;-88
2021/07/27 14:22:58;;;;;;;5.22;4.03;;;30.10;55.30;;;;;;6222491;23;20031;-86
2021/07/27 14:25:45;;;;;;;5.00;4.25;;;31.00;53.20;;;;;;6223021;23;20042;-86
2021/07/27 14:28:32;;;;;;;6.10;4.13;;;31.90;52.40;;;;;;6203378;23;20046;-90
2021/07/27 14:31:20;;;;;;;4.65;4.18;;;32.20;49.40;;;;;;6221404;23;20024;-89
2021/07/27 14:34:10;;;;;;;5.20;4.30;;;31.60;51.50;;;;;;6202045;23;20036;-89
2021/07/27 14:36:59;;;;;;;5.38;4.60;;;30.90;51.80;;;;;;6202145;23;20063;-87
2021/07/27 14:39:49;;;;;;;6.32;4.93;;;29.70;53.70;;;;;;6242754;23;20230;-85
2021/07/27 14:42:36;;;;;;;5.60;4.07;;;29.50;55.30;;;;;;6220556;23;20173;-87
2021/07/27 14:45:26;;;;;;;5.53;4.15;;;29.30;55.20;;;;;;6220470;23;20028;-86
2021/07/27 14:48:15;;;;;;;6.10;4.72;;;29.80;55.10;;;;;;6221465;23;20066;-87
2021/07/27 14:51:03;;;;;;;6.50;4.20;;;30.40;55.40;;;;;;6242223;23;20032;-85
2021/07/27 14:53:50;;;;;;;8.30;4.82;;;30.10;53.20;;;;;;6220752;23;20379;-87
2021/07/27 14:56:40;;;;;;;6.35;4.75;;;29.90;55.40;;;;;;6219660;23;20315;-87
2021/07/27 14:59:28;;;;;;;6.40;4.95;;;29.90;54.60;;;;;;6243932;23;20086;-85
2021/07/27 15:02:15;;;;;;;4.90;4.43;;;30.50;53.00;;;;;;6243328;23;20070;-86
2021/07/27 15:05:03;;;;;;;6.50;4.35;;;30.80;53.60;;;;;;6243390;23;20024;-86
2021/07/27 15:07:50;;;;;;;5.57;4.30;;;31.20;54.30;;;;;;6221705;23;20130;-85
2021/07/27 15:10:37;;;;;;;8.43;4.47;;;31.50;52.30;;;;;;6245903;22;20059;-85
2021/07/27 15:13:27;;;;;;;6.45;4.03;;;31.60;53.60;;;;;;6182936;23;20031;-86
2021/07/27 15:16:15;;;;;;;5.70;4.45;;;31.40;52.10;;;;;;6221739;23;20024;-86
2021/07/27 15:19:08;;;;;;;7.32;4.50;;;30.80;53.20;;;;;;6243885;23;20028;-88
2021/07/27 15:21:55;;;;;;;5.40;4.47;;;30.30;54.40;;;;;;6247528;23;20086;-88
2021/07/27 15:24:43;;;;;;;6.10;4.20;;;29.70;55.30;;;;;;6245701;23;20031;-89
2021/07/27 15:27:30;;;;;;;7.82;4.70;;;29.70;54.60;;;;;;6221425;23;20082;-86
2021/07/27 15:30:20;;;;;;;5.13;4.63;;;29.70;57.30;;;;;;6220398;23;20028;-87
2021/07/27 15:33:13;;;;;;;5.32;4.53;;;30.00;56.50;;;;;;6220852;23;20028;-87
2021/07/27 15:36:00;;;;;;;8.20;4.30;;;31.00;52.00;;;;;;6222351;23;20074;-88
2021/07/27 15:38:48;;;;;;;4.80;4.30;;;31.10;52.00;;;;;;6241929;23;20071;-87
2021/07/27 15:41:35;;;;;;;5.50;4.60;;;30.90;54.40;;;;;;6199703;23;20380;-87
2021/07/27 15:44:29;;;;;;;5.80;4.78;;;30.50;53.00;;;;;;6241828;23;20154;-87
2021/07/27 15:47:16;;;;;;;6.47;5.20;;;29.70;58.50;;;;;;6199453;23;20600;-86
2021/07/27 15:50:07;;;;;;;8.20;4.97;;;30.00;55.70;;;;;;6241219;23;20035;-85
2021/07/27 15:52:54;;;;;;;5.60;4.75;;;29.00;56.60;;;;;;6219706;23;20102;-87
2021/07/27 15:55:43;;;;;;;8.77;5.20;;;28.60;60.30;;;;;;6219786;23;20102;-85
2021/07/27 15:58:30;;;;;;;7.00;4.75;;;28.20;59.20;;;;;;6240227;23;20372;-86
2021/07/27 16:01:18;;;;;;;7.20;5.18;;;28.10;60.80;;;;;;6219279;23;20080;-87
2021/07/27 16:04:05;;;;;;;8.32;5.53;;;27.50;61.20;;;;;;6241062;23;20034;-87
2021/07/27 16:06:52;;;;;;;8.27;5.47;;;27.00;63.10;;;;;;6220301;23;20135;-87
2021/07/27 16:09:40;;;;;;;6.45;5.03;;;26.60;64.70;;;;;;6220571;23;20039;-85
2021/07/27 16:12:28;;;;;;;6.38;4.70;;;26.60;65.60;;;;;;6241205;23;20062;-84
2021/07/27 16:15:16;;;;;;;7.47;4.97;;;26.10;66.70;;;;;;6241940;23;20099;-85
2021/07/27 16:18:05;;;;;;;15.20;8.93;;;25.90;67.40;;;;;;6190373;23;20328;-86
2021/07/27 16:20:52;;;;;;;6.93;5.20;;;25.70;68.50;;;;;;6191444;23;20114;-88
2021/07/27 16:23:41;;;;;;;8.10;5.28;;;25.60;71.30;;;;;;6217208;23;20412;-87
2021/07/27 16:26:29;;;;;;;7.90;5.53;;;25.40;67.10;;;;;;6214252;23;20351;-86
2021/07/27 16:29:19;;;;;;;7.07;5.03;;;25.10;68.00;;;;;;6216508;23;20028;-86
2021/07/27 16:32:09;;;;;;;6.93;5.00;;;25.00;68.60;;;;;;6215457;23;20025;-88
2021/07/27 16:34:56;;;;;;;7.40;5.30;;;25.20;71.50;;;;;;6191658;23;20031;-84
2021/07/27 16:37:43;;;;;;;6.78;5.53;;;25.30;70.60;;;;;;6212021;23;20028;-86
2021/07/27 16:40:31;;;;;;;7.32;5.90;;;25.30;70.90;;;;;;6211170;23;20111;-85
2021/07/27 16:43:18;;;;;;;7.93;5.60;;;25.20;71.30;;;;;;6190994;23;20033;-86
2021/07/27 16:46:05;;;;;;;5.95;5.15;;;25.20;73.00;;;;;;6189634;23;20032;-86
2021/07/27 16:48:52;;;;;;;7.57;5.40;;;25.20;72.70;;;;;;6193292;23;20408;-89
2021/07/27 16:51:40;;;;;;;7.70;5.95;;;25.20;71.90;;;;;;6190208;23;20104;-89
2021/07/27 16:54:27;;;;;;;8.68;5.53;;;25.40;70.00;;;;;;6213736;23;20078;-87
2021/07/27 16:57:14;;;;;;;8.85;5.30;;;25.30;69.00;;;;;;6213844;23;20025;-87
2021/07/27 17:00:04;;;;;;;10.00;5.68;;;25.00;70.20;;;;;;6212563;23;20091;-87
2021/07/27 17:02:54;;;;;;;11.27;5.32;;;24.60;72.30;;;;;;6192086;23;20032;-88
2021/07/27 17:05:41;;;;;;;10.18;6.22;;;24.30;71.60;;;;;;6181640;23;20035;-87
2021/07/27 17:08:29;;;;;;;7.85;5.10;;;24.10;73.20;;;;;;6209940;23;20063;-88
2021/07/27 17:11:17;;;;;;;6.32;4.88;;;24.00;75.10;;;;;;6202408;23;20490;-89
2021/07/27 17:14:04;;;;;;;12.13;6.18;;;24.00;75.50;;;;;;6213555;23;20028;-86
2021/07/27 17:16:53;;;;;;;7.25;6.10;;;23.90;78.70;;;;;;6210940;23;20030;-86
2021/07/27 17:19:41;;;;;;;9.60;6.88;;;23.80;80.40;;;;;;6244002;23;20032;-86
2021/07/27 17:22:28;;;;;;;8.18;6.00;;;23.70;82.60;;;;;;6242171;23;20035;-86
2021/07/27 17:25:16;;;;;;;7.82;5.63;;;23.70;82.80;;;;;;6243034;23;20098;-84
2021/07/27 17:28:04;;;;;;;6.85;5.47;;;23.70;81.40;;;;;;6241799;23;20539;-86
2021/07/27 17:30:54;;;;;;;8.00;5.90;;;23.80;79.20;;;;;;6244408;23;20051;-85
2021/07/27 17:33:44;;;;;;;8.98;5.88;;;23.80;78.20;;;;;;6245272;23;20082;-85
2021/07/27 17:36:31;;;;;;;8.18;5.47;;;23.80;78.50;;;;;;6249495;23;20082;-86
2021/07/27 17:39:19;;;;;;;8.32;5.65;;;23.90;79.50;;;;;;6249895;23;20047;-86
2021/07/27 17:42:06;;;;;;;7.47;5.10;;;23.80;78.10;;;;;;6228026;23;20052;-86
2021/07/27 17:44:55;;;;;;;8.77;6.25;;;23.80;79.20;;;;;;6243365;23;20090;-86
2021/07/27 17:47:42;;;;;;;9.15;6.40;;;23.70;79.20;;;;;;6243941;23;20412;-86
2021/07/27 17:50:29;;;;;;;7.97;5.93;;;23.70;80.80;;;;;;6241741;23;20592;-86
2021/07/27 17:53:17;;;;;;;17.27;6.32;;;23.60;83.20;;;;;;6242316;23;20020;-86
2021/07/27 17:56:04;;;;;;;10.68;5.20;;;23.60;82.00;;;;;;6242762;23;20155;-85
2021/07/27 17:58:51;;;;;;;9.25;6.63;;;23.60;83.50;;;;;;6241804;23;20028;-85
2021/07/27 18:01:38;;;;;;;10.85;5.05;;;23.60;83.80;;;;;;6220103;23;20090;-86
2021/07/27 18:04:26;;;;;;;7.07;5.50;;;23.60;82.60;;;;;;6241239;23;20046;-86
2021/07/27 18:07:15;;;;;;;11.07;5.88;;;23.60;84.80;;;;;;6242859;23;20035;-85
2021/07/27 18:10:04;;;;;;;8.82;6.45;;;23.50;84.80;;;;;;6242942;23;20020;-85
2021/07/27 18:12:51;;;;;;;8.38;7.05;;;23.50;88.70;;;;;;6243105;23;20117;-90
2021/07/27 18:15:39;;;;;;;9.77;7.50;;;23.40;91.70;;;;;;6245832;23;20086;-91
2021/07/27 18:18:27;;;;;;;13.57;7.72;;;23.30;92.80;;;;;;6244850;23;20093;-91
2021/07/27 18:21:14;;;;;;;10.75;7.15;;;23.10;95.80;;;;;;6223547;23;20020;-90
2021/07/27 18:24:01;;;;;;;13.35;6.90;;;23.00;96.80;;;;;;6224412;23;20043;-89
2021/07/27 18:26:49;;;;;;;11.25;7.20;;;22.90;94.80;;;;;;6223173;23;20075;-91
2021/07/27 18:29:37;;;;;;;9.02;6.40;;;22.80;97.60;;;;;;6247347;23;20024;-90
2021/07/27 18:32:24;;;;;;;10.13;5.65;;;22.80;96.50;;;;;;6224771;23;20035;-91
2021/07/27 18:35:12;;;;;;;8.38;6.10;;;22.80;96.70;;;;;;6226505;23;20016;-93
2021/07/27 18:38:04;;;;;;;9.73;6.25;;;22.70;96.80;;;;;;6243415;23;20042;-91
2021/07/27 18:56:26;;;;;;;;;;;;;;;;;;;;;
2021/07/27 19:15:58;;;;;;;8.48;5.57;;;22.00;94.50;;;;;;6057185;23;20030;-91
2021/07/27 19:23:13;;;;;;;;;;;;;;;;;;;;;
2021/07/27 19:30:03;;;;;;;7.75;5.50;;;21.60;98.00;;;;;;5878691;24;20120;-92
2021/07/27 19:33:17;;;;;;;6.47;5.35;;;21.50;98.30;;;;;;5886157;24;20048;-91
2021/07/27 19:36:44;;;;;;;7.20;5.38;;;21.50;97.80;;;;;;5878547;24;20052;-92
2021/07/27 19:40:43;;;;;;;9.82;6.10;;;21.50;96.80;;;;;;5878159;24;20074;-92
2021/07/27 19:48:17;;;;;;;8.30;5.07;;;21.50;97.30;;;;;;5882148;24;20017;-92
2021/07/27 19:55:21;;;;;;;8.20;5.13;;;21.40;97.60;;;;;;5819010;24;20081;-92
2021/07/27 19:59:10;;;;;;;9.18;5.88;;;21.30;97.20;;;;;;5858520;24;20051;-93
2021/07/27 20:01:58;;;;;;;8.73;5.03;;;21.30;96.60;;;;;;5908009;24;20021;-91
2021/07/27 20:06:12;;;;;;;;;;;;;;;;;;;;;
2021/07/27 20:12:52;;;;;;;10.32;5.15;;;21.30;96.10;;;;;;5824826;24;19966;-92
2021/07/27 20:15:53;;;;;;;8.77;5.13;;;21.40;95.70;;;;;;5823000;24;20026;-91
2021/07/27 20:19:02;;;;;;;10.05;5.25;;;21.30;95.70;;;;;;5820589;24;20082;-91
2021/07/27 20:22:23;;;;;;;8.40;5.78;;;21.30;95.90;;;;;;5751224;24;20327;-91
2021/07/27 20:29:45;;;;;;;7.82;5.72;;;21.10;96.60;;;;;;5964283;24;20103;-92
2021/07/27 20:33:18;;;;;;;11.32;5.72;;;21.10;97.20;;;;;;5932574;24;20165;-90
2021/07/27 20:45:26;;;;;;;;;;;;;;;;;;;;;
2021/07/27 20:57:18;;;;;;;6.18;5.57;;;20.60;99.90;;;;;;5958035;24;20024;-92
2021/07/27 21:00:34;;;;;;;10.18;6.25;;;20.60;99.90;;;;;;5982261;23;20039;-91
2021/07/27 21:03:41;;;;;;;8.75;5.78;;;20.50;99.90;;;;;;6007029;23;20031;-91
2021/07/27 23:43:39;;;;;;;19.77;15.77;;;17.40;99.90;;;;;;6043265;23;20335;-93
